sensor_id;sensor_type;location;lat;lon;timestamp;pressure;altitude;pressure_sealevel;temperature;humidity
55317;BME280;41178;48.956;8.130;2023-02-15T00:02:50;101368.28;;;0.64;59.95
55317;BME280;41178;48.956;8.130;2023-02-15T00:07:51;101405.38;;;1.11;59.72
55317;BME280;41178;48.956;8.130;2023-02-15T00:12:54;101431.47;;;1.49;59.54
55317;BME280;41178;48.956;8.130;2023-02-15T00:17:57;101435.16;;;1.78;58.48
55317;BME280;41178;48.956;8.130;2023-02-15T00:22:58;101449.66;;;2.01;57.85
55317;BME280;41178;48.956;8.130;2023-02-15T00:28:00;101438.63;;;1.78;58.93
55317;BME280;41178;48.956;8.130;2023-02-15T00:33:02;101496.84;;;2.84;56.34
55317;BME280;41178;48.956;8.130;2023-02-15T00:38:04;101408.25;;;1.55;58.22
55317;BME280;41178;48.956;8.130;2023-02-15T00:43:05;101446.28;;;1.67;58.84
55317;BME280;41178;48.956;8.130;2023-02-15T00:48:07;101435.16;;;1.46;59.14
55317;BME280;41178;48.956;8.130;2023-02-15T00:53:08;101432.22;;;1.01;61.46
55317;BME280;41178;48.956;8.130;2023-02-15T00:58:11;101415.41;;;1.53;59.34
55317;BME280;41178;48.956;8.130;2023-02-15T01:03:14;101398.44;;;1.26;58.92
55317;BME280;41178;48.956;8.130;2023-02-15T01:08:17;101400.13;;;1.11;59.73
55317;BME280;41178;48.956;8.130;2023-02-15T01:13:19;101356.88;;;0.13;61.13
55317;BME280;41178;48.956;8.130;2023-02-15T01:18:21;101412.47;;;1.26;60.05
55317;BME280;41178;48.956;8.130;2023-02-15T01:23:23;101403.22;;;1.35;59.55
55317;BME280;41178;48.956;8.130;2023-02-15T01:28:25;101370.56;;;0.88;59.76
55317;BME280;41178;48.956;8.130;2023-02-15T01:33:26;101335.03;;;-0.24;61.14
55317;BME280;41178;48.956;8.130;2023-02-15T01:38:28;101430.38;;;1.85;58.44
55317;BME280;41178;48.956;8.130;2023-02-15T01:43:44;101375.63;;;1.24;58.62
55317;BME280;41178;48.956;8.130;2023-02-15T01:48:55;101379.28;;;0.73;61.44
55317;BME280;41178;48.956;8.130;2023-02-15T01:54:02;101427.94;;;2.12;57.33
55317;BME280;41178;48.956;8.130;2023-02-15T01:59:09;101370.75;;;1.01;59.52
55317;BME280;41178;48.956;8.130;2023-02-15T02:09:45;101394.38;;;1.68;59.09
55317;BME280;41178;48.956;8.130;2023-02-15T02:15:11;101420.53;;;2.33;57.10
55317;BME280;41178;48.956;8.130;2023-02-15T02:26:47;101374.53;;;1.76;57.59
55317;BME280;41178;48.956;8.130;2023-02-15T02:49:43;101314.44;;;0.86;58.92
55317;BME280;41178;48.956;8.130;2023-02-15T03:00:57;101337.34;;;1.33;58.05
55317;BME280;41178;48.956;8.130;2023-02-15T04:53:23;101384.19;;;2.22;55.61
55317;BME280;41178;48.956;8.130;2023-02-15T04:58:25;101355.78;;;1.81;56.06
55317;BME280;41178;48.956;8.130;2023-02-15T05:03:26;101380.91;;;2.33;55.35
55317;BME280;41178;48.956;8.130;2023-02-15T05:08:28;101335.47;;;1.51;56.09
55317;BME280;41178;48.956;8.130;2023-02-15T05:13:30;101351.91;;;1.40;57.24
55317;BME280;41178;48.956;8.130;2023-02-15T05:18:32;101328.22;;;1.23;57.14
55317;BME280;41178;48.956;8.130;2023-02-15T05:23:34;101295.72;;;0.75;57.36
55317;BME280;41178;48.956;8.130;2023-02-15T05:28:37;101403.97;;;2.45;55.61
55317;BME280;41178;48.956;8.130;2023-02-15T05:33:40;101370.81;;;1.95;55.45
55317;BME280;41178;48.956;8.130;2023-02-15T05:38:42;101387.56;;;2.10;55.88
55317;BME280;41178;48.956;8.130;2023-02-15T05:43:43;101345.78;;;1.40;56.90
55317;BME280;41178;48.956;8.130;2023-02-15T05:48:45;101337.09;;;0.39;59.88
55317;BME280;41178;48.956;8.130;2023-02-15T05:53:47;101325.53;;;0.26;59.57
55317;BME280;41178;48.956;8.130;2023-02-15T05:58:48;101291.91;;;-0.56;61.79
55317;BME280;41178;48.956;8.130;2023-02-15T06:03:50;101359.88;;;1.07;59.04
55317;BME280;41178;48.956;8.130;2023-02-15T06:08:52;101377.28;;;2.20;56.21
55317;BME280;41178;48.956;8.130;2023-02-15T06:13:54;101378.41;;;2.15;55.92
55317;BME280;41178;48.956;8.130;2023-02-15T06:18:55;101416.06;;;2.49;54.83
55317;BME280;41178;48.956;8.130;2023-02-15T06:23:57;101356.41;;;1.54;56.47
55317;BME280;41178;48.956;8.130;2023-02-15T06:28:59;101390.06;;;1.97;55.28
55317;BME280;41178;48.956;8.130;2023-02-15T06:34:00;101422.34;;;2.32;55.22
55317;BME280;41178;48.956;8.130;2023-02-15T06:39:03;101414.06;;;2.39;54.86
55317;BME280;41178;48.956;8.130;2023-02-15T06:44:04;101403.13;;;2.14;55.13
55317;BME280;41178;48.956;8.130;2023-02-15T06:49:06;101399.38;;;1.72;56.33
55317;BME280;41178;48.956;8.130;2023-02-15T06:54:08;101371.16;;;1.42;55.85
55317;BME280;41178;48.956;8.130;2023-02-15T06:59:10;101363.56;;;1.36;56.06
55317;BME280;41178;48.956;8.130;2023-02-15T07:04:11;101396.47;;;1.77;55.60
55317;BME280;41178;48.956;8.130;2023-02-15T07:09:13;101460.31;;;2.60;54.01
55317;BME280;41178;48.956;8.130;2023-02-15T07:14:15;101421.91;;;2.10;55.68
55317;BME280;41178;48.956;8.130;2023-02-15T07:19:16;101402.25;;;1.84;56.58
55317;BME280;41178;48.956;8.130;2023-02-15T07:24:18;101378.72;;;1.49;56.57
55317;BME280;41178;48.956;8.130;2023-02-15T07:29:20;101347.03;;;1.01;57.42
55317;BME280;41178;48.956;8.130;2023-02-15T07:34:22;101384.25;;;1.44;57.20
55317;BME280;41178;48.956;8.130;2023-02-15T07:39:23;101421.19;;;2.22;55.74
55317;BME280;41178;48.956;8.130;2023-02-15T07:44:25;101371.56;;;1.35;57.84
55317;BME280;41178;48.956;8.130;2023-02-15T07:49:26;101399.97;;;2.08;55.94
55317;BME280;41178;48.956;8.130;2023-02-15T07:54:28;101419.66;;;2.63;55.77
55317;BME280;41178;48.956;8.130;2023-02-15T07:59:30;101369.59;;;1.38;57.13
55317;BME280;41178;48.956;8.130;2023-02-15T08:04:31;101304.13;;;0.49;59.17
55317;BME280;41178;48.956;8.130;2023-02-15T08:09:33;101419.56;;;2.79;55.00
55317;BME280;41178;48.956;8.130;2023-02-15T08:14:35;101426.78;;;3.05;54.40
55317;BME280;41178;48.956;8.130;2023-02-15T08:19:36;101369.75;;;1.83;56.84
55317;BME280;41178;48.956;8.130;2023-02-15T08:24:38;101367.09;;;1.83;56.83
55317;BME280;41178;48.956;8.130;2023-02-15T08:29:40;101405.97;;;2.56;55.08
55317;BME280;41178;48.956;8.130;2023-02-15T08:34:43;101405.78;;;2.73;55.10
55317;BME280;41178;48.956;8.130;2023-02-15T08:39:45;101386.84;;;2.36;55.92
55317;BME280;41178;48.956;8.130;2023-02-15T08:44:47;101367.44;;;2.07;57.07
55317;BME280;41178;48.956;8.130;2023-02-15T08:49:51;101403.53;;;2.82;54.94
55317;BME280;41178;48.956;8.130;2023-02-15T08:54:53;101356.41;;;2.01;56.68
55317;BME280;41178;48.956;8.130;2023-02-15T08:59:56;101303.66;;;1.06;57.50
55317;BME280;41178;48.956;8.130;2023-02-15T09:04:58;101304.25;;;0.96;58.40
55317;BME280;41178;48.956;8.130;2023-02-15T09:09:59;101243.38;;;0.19;60.81
55317;BME280;41178;48.956;8.130;2023-02-15T09:15:01;101296.41;;;1.26;58.73
55317;BME280;41178;48.956;8.130;2023-02-15T09:20:03;101292.19;;;1.08;59.41
55317;BME280;41178;48.956;8.130;2023-02-15T09:25:05;101314.78;;;1.59;59.06
55317;BME280;41178;48.956;8.130;2023-02-15T09:30:07;101326.50;;;1.70;58.68
55317;BME280;41178;48.956;8.130;2023-02-15T09:35:08;101314.66;;;1.77;57.17
55317;BME280;41178;48.956;8.130;2023-02-15T09:40:13;101220.81;;;-0.20;61.60
55317;BME280;41178;48.956;8.130;2023-02-15T10:29:04;101324.50;;;2.48;56.89
55317;BME280;41178;48.956;8.130;2023-02-15T10:34:22;101267.88;;;0.86;60.65
55317;BME280;41178;48.956;8.130;2023-02-15T10:50:39;101289.63;;;2.13;57.73
55317;BME280;41178;48.956;8.130;2023-02-15T11:06:30;101274.69;;;0.41;63.47
55317;BME280;41178;48.956;8.130;2023-02-15T11:11:36;101260.97;;;-1.45;67.61
55317;BME280;41178;48.956;8.130;2023-02-15T11:16:47;101225.03;;;0.34;62.80
55317;BME280;41178;48.956;8.130;2023-02-15T11:21:53;101227.44;;;0.54;63.29
55317;BME280;41178;48.956;8.130;2023-02-15T11:27:10;101159.22;;;-0.86;64.37
55317;BME280;41178;48.956;8.130;2023-02-15T11:32:26;101201.97;;;0.71;61.84
55317;BME280;41178;48.956;8.130;2023-02-15T11:37:35;101175.94;;;-0.17;63.49
55317;BME280;41178;48.956;8.130;2023-02-15T11:42:39;101198.56;;;0.84;62.15
55317;BME280;41178;48.956;8.130;2023-02-15T11:47:41;101140.44;;;0.24;61.85
55317;BME280;41178;48.956;8.130;2023-02-15T11:52:43;101157.34;;;0.52;63.11
55317;BME280;41178;48.956;8.130;2023-02-15T11:57:52;101134.44;;;0.38;62.46
55317;BME280;41178;48.956;8.130;2023-02-15T12:02:57;101169.59;;;1.15;61.16
55317;BME280;41178;48.956;8.130;2023-02-15T12:08:03;101132.16;;;-0.35;63.86
55317;BME280;41178;48.956;8.130;2023-02-15T12:13:17;101165.88;;;1.49;60.94
55317;BME280;41178;48.956;8.130;2023-02-15T12:18:40;101124.16;;;0.95;60.98
55317;BME280;41178;48.956;8.130;2023-02-15T12:23:51;101126.78;;;1.26;60.37
55317;BME280;41178;48.956;8.130;2023-02-15T12:28:54;101093.97;;;0.39;61.42
55317;BME280;41178;48.956;8.130;2023-02-15T12:34:00;101163.91;;;1.67;59.00
55317;BME280;41178;48.956;8.130;2023-02-15T12:49:18;101127.13;;;1.19;60.80
55317;BME280;41178;48.956;8.130;2023-02-15T12:54:33;101162.25;;;1.95;59.98
55317;BME280;41178;48.956;8.130;2023-02-15T13:04:52;101125.56;;;1.31;61.21
55317;BME280;41178;48.956;8.130;2023-02-15T13:09:54;101119.06;;;1.22;61.70
55317;BME280;41178;48.956;8.130;2023-02-15T13:14:57;101154.31;;;1.95;59.04
55317;BME280;41178;48.956;8.130;2023-02-15T13:20:05;101092.94;;;1.03;61.31
55317;BME280;41178;48.956;8.130;2023-02-15T13:25:19;101114.69;;;1.52;60.27
55317;BME280;41178;48.956;8.130;2023-02-15T13:30:34;101094.09;;;1.28;60.28
55317;BME280;41178;48.956;8.130;2023-02-15T13:35:50;101148.81;;;2.27;59.57
55317;BME280;41178;48.956;8.130;2023-02-15T13:41:04;101123.38;;;1.97;59.26
55317;BME280;41178;48.956;8.130;2023-02-15T13:56:55;101154.09;;;2.68;58.21
55317;BME280;41178;48.956;8.130;2023-02-15T14:07:58;101052.94;;;1.26;60.52
55317;BME280;41178;48.956;8.130;2023-02-15T14:19:34;101118.09;;;2.11;58.39
55317;BME280;41178;48.956;8.130;2023-02-15T14:34:57;101150.31;;;2.72;58.16
55317;BME280;41178;48.956;8.130;2023-02-15T14:45:41;101078.16;;;1.46;59.94
55317;BME280;41178;48.956;8.130;2023-02-15T14:50:47;101134.13;;;2.50;58.77
55317;BME280;41178;48.956;8.130;2023-02-15T14:56:05;101072.00;;;1.00;60.82
55317;BME280;41178;48.956;8.130;2023-02-15T15:01:10;101081.41;;;1.35;61.16
55317;BME280;41178;48.956;8.130;2023-02-15T15:06:27;101112.22;;;2.21;58.68
55317;BME280;41178;48.956;8.130;2023-02-15T15:16:48;101056.75;;;1.50;60.31
55317;BME280;41178;48.956;8.130;2023-02-15T15:21:52;101101.91;;;1.30;62.16
55317;BME280;41178;48.956;8.130;2023-02-15T15:32:34;101090.81;;;2.11;59.63
55317;BME280;41178;48.956;8.130;2023-02-15T15:38:10;101039.53;;;1.29;60.70
55317;BME280;41178;48.956;8.130;2023-02-15T15:43:31;101045.03;;;1.26;62.03
55317;BME280;41178;48.956;8.130;2023-02-15T15:48:38;101103.28;;;2.50;59.22
55317;BME280;41178;48.956;8.130;2023-02-15T15:53:44;101107.81;;;2.48;58.92
55317;BME280;41178;48.956;8.130;2023-02-15T15:58:56;101125.56;;;2.73;57.46
55317;BME280;41178;48.956;8.130;2023-02-15T16:03:59;101161.22;;;3.35;56.33
55317;BME280;41178;48.956;8.130;2023-02-15T16:14:36;101086.78;;;2.05;58.82
55317;BME280;41178;48.956;8.130;2023-02-15T16:19:40;101134.88;;;2.94;56.87
55317;BME280;41178;48.956;8.130;2023-02-15T16:30:30;101149.78;;;2.95;55.34
55317;BME280;41178;48.956;8.130;2023-02-15T16:35:33;101106.03;;;2.49;56.57
55317;BME280;41178;48.956;8.130;2023-02-15T16:40:51;101109.19;;;2.27;56.63
55317;BME280;41178;48.956;8.130;2023-02-15T16:46:02;101150.16;;;2.88;55.63
55317;BME280;41178;48.956;8.130;2023-02-15T16:51:04;101077.22;;;1.61;58.20
55317;BME280;41178;48.956;8.130;2023-02-15T16:56:06;101124.19;;;2.26;57.32
55317;BME280;41178;48.956;8.130;2023-02-15T17:01:10;101110.06;;;2.13;57.04
55317;BME280;41178;48.956;8.130;2023-02-15T17:06:24;101111.03;;;2.12;56.95
55317;BME280;41178;48.956;8.130;2023-02-15T17:11:41;101044.91;;;1.13;58.14
55317;BME280;41178;48.956;8.130;2023-02-15T17:16:54;101085.13;;;1.61;58.31
55317;BME280;41178;48.956;8.130;2023-02-15T17:22:05;101065.91;;;1.29;58.98
55317;BME280;41178;48.956;8.130;2023-02-15T17:27:20;101036.09;;;0.83;59.53
55317;BME280;41178;48.956;8.130;2023-02-15T17:32:32;101047.41;;;1.00;58.98
55317;BME280;41178;48.956;8.130;2023-02-15T17:42:39;101100.19;;;1.73;57.93
55317;BME280;41178;48.956;8.130;2023-02-15T17:47:42;101047.88;;;0.62;59.60
55317;BME280;41178;48.956;8.130;2023-02-15T17:52:44;101131.88;;;2.16;56.88
55317;BME280;41178;48.956;8.130;2023-02-15T17:57:45;101104.31;;;2.06;56.81
55317;BME280;41178;48.956;8.130;2023-02-15T18:02:48;101118.63;;;2.31;55.64
55317;BME280;41178;48.956;8.130;2023-02-15T18:08:11;101068.47;;;1.30;57.50
55317;BME280;41178;48.956;8.130;2023-02-15T18:13:32;101088.34;;;1.21;58.12
55317;BME280;41178;48.956;8.130;2023-02-15T18:18:33;101087.84;;;1.45;57.30
55317;BME280;41178;48.956;8.130;2023-02-15T18:23:35;101017.09;;;0.48;58.28
55317;BME280;41178;48.956;8.130;2023-02-15T18:28:37;101040.06;;;0.60;58.25
55317;BME280;41178;48.956;8.130;2023-02-15T18:33:47;101051.09;;;0.97;57.66
55317;BME280;41178;48.956;8.130;2023-02-15T18:38:50;101045.38;;;0.44;59.41
55317;BME280;41178;48.956;8.130;2023-02-15T18:43:54;101016.94;;;-0.29;60.92
55317;BME280;41178;48.956;8.130;2023-02-15T18:48:56;101081.22;;;0.47;59.69
55317;BME280;41178;48.956;8.130;2023-02-15T18:53:59;100979.19;;;-1.82;63.80
55317;BME280;41178;48.956;8.130;2023-02-15T18:59:01;101030.22;;;-1.33;62.40
55317;BME280;41178;48.956;8.130;2023-02-15T19:04:02;101056.75;;;-1.21;63.68
55317;BME280;41178;48.956;8.130;2023-02-15T19:09:04;101026.53;;;-1.12;62.92
55317;BME280;41178;48.956;8.130;2023-02-15T19:14:18;101067.94;;;-0.31;62.55
55317;BME280;41178;48.956;8.130;2023-02-15T19:19:23;101040.50;;;-0.61;63.43
55317;BME280;41178;48.956;8.130;2023-02-15T19:24:36;101025.63;;;-0.60;62.68
55317;BME280;41178;48.956;8.130;2023-02-15T19:29:39;101031.22;;;0.15;61.23
55317;BME280;41178;48.956;8.130;2023-02-15T19:34:40;101010.47;;;-0.39;62.13
55317;BME280;41178;48.956;8.130;2023-02-15T19:39:42;101006.78;;;-0.35;61.53
55317;BME280;41178;48.956;8.130;2023-02-15T19:44:44;100993.34;;;-0.46;62.16
55317;BME280;41178;48.956;8.130;2023-02-15T19:49:46;101012.78;;;0.15;60.71
55317;BME280;41178;48.956;8.130;2023-02-15T19:54:48;101060.38;;;-0.37;63.22
55317;BME280;41178;48.956;8.130;2023-02-15T19:59:50;101015.88;;;0.54;60.25
55317;BME280;41178;48.956;8.130;2023-02-15T20:04:52;100992.66;;;-0.67;62.04
55317;BME280;41178;48.956;8.130;2023-02-15T20:09:54;101060.84;;;0.35;61.82
55317;BME280;41178;48.956;8.130;2023-02-15T20:14:57;101035.59;;;-1.18;64.51
55317;BME280;41178;48.956;8.130;2023-02-15T20:19:58;101024.41;;;-0.37;61.74
55317;BME280;41178;48.956;8.130;2023-02-15T20:25:00;101056.19;;;0.08;62.13
55317;BME280;41178;48.956;8.130;2023-02-15T20:30:03;101050.75;;;0.11;61.78
55317;BME280;41178;48.956;8.130;2023-02-15T20:35:05;101040.50;;;-0.10;61.13
55317;BME280;41178;48.956;8.130;2023-02-15T20:40:20;101012.53;;;-0.95;61.66
55317;BME280;41178;48.956;8.130;2023-02-15T20:45:25;101025.28;;;-2.32;66.76
55317;BME280;41178;48.956;8.130;2023-02-15T20:50:30;101057.16;;;-1.84;66.64
55317;BME280;41178;48.956;8.130;2023-02-15T20:55:32;101046.31;;;-1.76;66.67
55317;BME280;41178;48.956;8.130;2023-02-15T21:00:34;101012.91;;;-2.88;68.37
55317;BME280;41178;48.956;8.130;2023-02-15T21:05:36;101033.69;;;-0.14;63.86
55317;BME280;41178;48.956;8.130;2023-02-15T21:10:39;101047.66;;;-1.50;65.92
55317;BME280;41178;48.956;8.130;2023-02-15T21:15:45;101038.38;;;-0.52;63.80
55317;BME280;41178;48.956;8.130;2023-02-15T21:20:50;101021.41;;;-3.24;70.24
55317;BME280;41178;48.956;8.130;2023-02-15T21:25:54;101020.56;;;-0.98;65.05
55317;BME280;41178;48.956;8.130;2023-02-15T21:30:57;101041.19;;;-1.25;65.50
55317;BME280;41178;48.956;8.130;2023-02-15T21:36:00;101017.16;;;-1.52;65.23
55317;BME280;41178;48.956;8.130;2023-02-15T21:41:03;101052.19;;;-1.71;65.67
55317;BME280;41178;48.956;8.130;2023-02-15T21:46:24;101019.84;;;-0.33;62.48
55317;BME280;41178;48.956;8.130;2023-02-15T21:51:45;101019.66;;;-0.30;63.91
55317;BME280;41178;48.956;8.130;2023-02-15T21:57:07;101018.78;;;-1.50;64.25
55317;BME280;41178;48.956;8.130;2023-02-15T22:02:29;101023.97;;;-1.13;63.96
55317;BME280;41178;48.956;8.130;2023-02-15T22:07:31;101009.44;;;-0.52;61.80
55317;BME280;41178;48.956;8.130;2023-02-15T22:12:33;101063.03;;;-0.72;64.00
55317;BME280;41178;48.956;8.130;2023-02-15T22:17:35;101023.78;;;-0.42;61.99
55317;BME280;41178;48.956;8.130;2023-02-15T22:22:36;101024.06;;;-0.15;61.25
55317;BME280;41178;48.956;8.130;2023-02-15T22:27:39;101063.69;;;-1.02;64.03
55317;BME280;41178;48.956;8.130;2023-02-15T22:32:41;101052.53;;;-0.06;62.33
55317;BME280;41178;48.956;8.130;2023-02-15T22:37:43;101077.59;;;-1.90;66.54
55317;BME280;41178;48.956;8.130;2023-02-15T22:42:47;101061.66;;;-1.32;64.60
55317;BME280;41178;48.956;8.130;2023-02-15T22:47:51;101041.56;;;-0.81;64.01
55317;BME280;41178;48.956;8.130;2023-02-15T22:52:54;101007.38;;;-0.63;61.74
55317;BME280;41178;48.956;8.130;2023-02-15T22:57:56;101037.84;;;-0.10;61.41
55317;BME280;41178;48.956;8.130;2023-02-15T23:02:58;101049.66;;;0.31;60.21
55317;BME280;41178;48.956;8.130;2023-02-15T23:08:01;101050.22;;;-0.12;60.81
55317;BME280;41178;48.956;8.130;2023-02-15T23:13:14;101067.56;;;-0.08;61.82
55317;BME280;41178;48.956;8.130;2023-02-15T23:23:39;101033.69;;;-0.98;62.13
55317;BME280;41178;48.956;8.130;2023-02-15T23:28:41;101070.75;;;-0.34;62.92
55317;BME280;41178;48.956;8.130;2023-02-15T23:33:43;101077.25;;;-1.46;65.27
55317;BME280;41178;48.956;8.130;2023-02-15T23:38:44;101046.88;;;-1.88;64.59
55317;BME280;41178;48.956;8.130;2023-02-15T23:43:55;101036.56;;;-1.38;64.53
55317;BME280;41178;48.956;8.130;2023-02-15T23:48:57;101042.59;;;-1.01;64.09
55317;BME280;41178;48.956;8.130;2023-02-15T23:53:59;101017.25;;;-1.02;63.33
55317;BME280;41178;48.956;8.130;2023-02-15T23:59:01;101044.91;;;-0.94;64.23
